createdAt,value
2022-12-23T00:00:07.822Z,100
2022-12-23T00:05:06.112Z,100
2022-12-23T00:10:05.098Z,100
2022-12-23T00:15:03.801Z,100
2022-12-23T00:20:02.072Z,100
2022-12-23T00:25:00.344Z,100
2022-12-23T00:29:57.671Z,100
2022-12-23T00:34:55.871Z,100
2022-12-23T00:39:55.145Z,100
2022-12-23T00:44:52.305Z,100
2022-12-23T00:49:50.817Z,100
2022-12-23T00:54:48.747Z,100
2022-12-23T00:59:46.904Z,100
2022-12-23T01:04:44.995Z,100
2022-12-23T01:09:43.003Z,100
2022-12-23T01:14:41.336Z,100
2022-12-23T01:19:39.686Z,100
2022-12-23T01:24:38.053Z,100
2022-12-23T01:29:36.570Z,100
2022-12-23T01:34:37.288Z,100
2022-12-23T01:39:34.459Z,100
2022-12-23T01:44:32.810Z,100
2022-12-23T01:49:31.238Z,100
2022-12-23T01:54:29.573Z,100
2022-12-23T01:59:27.911Z,100
2022-12-23T02:04:25.939Z,100
2022-12-23T02:09:24.386Z,100
2022-12-23T02:14:22.545Z,100
2022-12-23T02:19:20.863Z,100
2022-12-23T02:24:19.242Z,100
2022-12-23T02:29:17.732Z,100
2022-12-23T02:34:16.193Z,100
2022-12-23T02:39:14.528Z,100
2022-12-23T02:44:12.893Z,100
2022-12-23T02:49:11.008Z,100
2022-12-23T02:54:09.419Z,100
2022-12-23T02:59:07.904Z,100
2022-12-23T03:04:06.806Z,100
2022-12-23T03:09:04.708Z,100
2022-12-23T03:14:03.227Z,100
2022-12-23T03:19:01.385Z,100
2022-12-23T03:23:59.799Z,100
2022-12-23T03:28:57.780Z,100
2022-12-23T03:33:56.287Z,100
2022-12-23T03:38:54.578Z,100
2022-12-23T03:43:52.854Z,100
2022-12-23T03:48:51.162Z,100
2022-12-23T03:53:49.673Z,100
2022-12-23T03:58:47.895Z,100
2022-12-23T04:03:46.196Z,100
2022-12-23T04:08:44.774Z,100
2022-12-23T04:13:42.984Z,100
2022-12-23T04:18:41.170Z,100
2022-12-23T04:23:39.447Z,100
2022-12-23T04:28:37.691Z,100
2022-12-23T04:33:36.161Z,100
2022-12-23T04:38:34.397Z,100
2022-12-23T04:43:32.887Z,100
2022-12-23T04:48:31.223Z,100
2022-12-23T04:53:29.600Z,100
2022-12-23T04:58:28.155Z,100
2022-12-23T05:03:26.561Z,100
2022-12-23T05:08:24.661Z,100
2022-12-23T05:13:23.366Z,100
2022-12-23T05:18:21.673Z,100
2022-12-23T05:23:20.081Z,100
2022-12-23T05:28:18.726Z,100
2022-12-23T05:33:17.282Z,100
2022-12-23T05:38:15.562Z,100
2022-12-23T05:43:13.939Z,100
2022-12-23T05:48:12.483Z,100
2022-12-23T05:53:10.745Z,100
2022-12-23T05:58:09.036Z,100
2022-12-23T06:03:07.809Z,100
2022-12-23T06:08:05.852Z,100
2022-12-23T06:13:04.104Z,100
2022-12-23T06:18:02.508Z,100
2022-12-23T06:23:00.808Z,100
2022-12-23T06:27:59.435Z,100
2022-12-23T06:32:57.910Z,100
2022-12-23T06:37:56.479Z,100
2022-12-23T06:42:54.731Z,100
2022-12-23T06:47:53.705Z,100
2022-12-23T06:52:51.872Z,100
2022-12-23T06:57:50.325Z,100
2022-12-23T07:02:49.473Z,100
2022-12-23T07:07:47.650Z,100
2022-12-23T07:12:50.646Z,100
2022-12-23T07:17:45.510Z,100
2022-12-23T07:22:44.536Z,100
2022-12-23T07:27:43.593Z,95.6
2022-12-23T07:32:43.183Z,92.9
2022-12-23T07:37:41.489Z,91.2
2022-12-23T07:42:47.060Z,93.3
2022-12-23T07:47:39.083Z,88.3
2022-12-23T07:52:37.080Z,85.6
2022-12-23T07:57:41.550Z,71
2022-12-23T08:02:39.419Z,72.1
2022-12-23T08:07:36.902Z,72.1
2022-12-23T08:12:34.675Z,73.7
2022-12-23T08:17:32.561Z,76.5
2022-12-23T08:22:31.255Z,74.5
2022-12-23T08:27:28.914Z,79.4
2022-12-23T08:32:27.006Z,80.5
2022-12-23T08:37:25.876Z,78.2
2022-12-23T08:42:25.685Z,73.2
2022-12-23T08:47:24.249Z,71.4
2022-12-23T08:52:23.789Z,67
2022-12-23T08:57:24.332Z,60.6
2022-12-23T09:02:21.994Z,58.5
2022-12-23T09:07:20.459Z,58.6
2022-12-23T09:12:19.856Z,56.5
2022-12-23T09:17:25.776Z,43.6
2022-12-23T09:22:26.722Z,39.7
2022-12-23T09:27:26.506Z,36.5
2022-12-23T09:32:25.014Z,35.2
2022-12-23T09:37:25.008Z,32.2
2022-12-23T09:42:21.714Z,34
2022-12-23T09:47:16.909Z,36.7
2022-12-23T09:52:13.128Z,39.2
2022-12-23T09:57:10.704Z,41
2022-12-23T10:02:08.313Z,43
2022-12-23T10:07:06.020Z,43.1
2022-12-23T10:12:04.470Z,43.9
2022-12-23T10:17:02.970Z,44.5
2022-12-23T10:22:01.820Z,44
2022-12-23T10:27:00.649Z,43.9
2022-12-23T10:31:59.018Z,44.1
2022-12-23T10:36:57.358Z,44.2
2022-12-23T10:41:55.352Z,44.7
2022-12-23T10:46:53.803Z,45.1
2022-12-23T10:51:51.612Z,45.9
2022-12-23T10:56:49.733Z,47.6
2022-12-23T11:01:48.734Z,47.6
2022-12-23T11:06:47.336Z,46
2022-12-23T11:11:45.848Z,45.9
2022-12-23T11:16:44.952Z,45
2022-12-23T11:21:43.139Z,45.4
2022-12-23T11:26:41.174Z,46.1
2022-12-23T11:31:39.815Z,45.4
2022-12-23T11:36:38.452Z,45.4
2022-12-23T11:41:36.716Z,45.8
2022-12-23T11:46:34.669Z,46.1
2022-12-23T11:51:32.974Z,46.5
2022-12-23T11:56:31.102Z,45.5
2022-12-23T12:01:29.624Z,44.8
2022-12-23T12:06:28.038Z,45.1
2022-12-23T12:11:26.590Z,44.6
2022-12-23T12:16:25.058Z,45.1
2022-12-23T12:21:23.231Z,45.5
2022-12-23T12:26:21.299Z,46
2022-12-23T12:31:19.653Z,45.9
2022-12-23T12:36:18.012Z,46.2
2022-12-23T12:41:16.323Z,48.6
2022-12-23T12:46:13.574Z,51.6
2022-12-23T12:51:10.805Z,56
2022-12-23T12:56:08.232Z,59.3
2022-12-23T13:01:06.166Z,60.5
2022-12-23T13:06:04.859Z,62
2022-12-23T13:11:03.440Z,64
2022-12-23T13:16:01.768Z,65.6
2022-12-23T13:21:00.440Z,65.8
2022-12-23T13:25:58.691Z,67.4
2022-12-23T13:30:57.241Z,69.4
2022-12-23T13:35:59.833Z,74.2
2022-12-23T13:40:52.640Z,79.2
2022-12-23T13:45:50.392Z,83
2022-12-23T13:50:48.270Z,83.4
2022-12-23T13:55:46.031Z,86.8
2022-12-23T14:00:43.831Z,90.7
2022-12-23T14:05:41.937Z,92.3
2022-12-23T14:10:39.972Z,92.9
2022-12-23T14:15:38.274Z,94.7
2022-12-23T14:20:36.220Z,95.6
2022-12-23T14:25:34.383Z,97.2
2022-12-23T14:30:32.804Z,96.5
2022-12-23T14:35:33.359Z,98.7
2022-12-23T14:40:29.518Z,99.4
2022-12-23T14:45:27.780Z,99.1
2022-12-23T14:50:25.839Z,100
2022-12-23T14:55:32.207Z,100
2022-12-23T15:00:22.070Z,100
2022-12-23T15:05:20.209Z,100
2022-12-23T15:10:18.284Z,100
2022-12-23T15:15:16.564Z,100
2022-12-23T15:20:15.150Z,100
2022-12-23T15:25:13.445Z,100
2022-12-23T15:30:12.030Z,100
2022-12-23T15:35:10.094Z,100
2022-12-23T15:40:12.954Z,100
2022-12-23T15:45:07.259Z,100
2022-12-23T15:50:05.879Z,100
2022-12-23T15:55:03.837Z,100
2022-12-23T16:00:02.200Z,100
2022-12-23T16:05:00.686Z,100
2022-12-23T16:09:58.902Z,100
2022-12-23T16:14:56.340Z,100
2022-12-23T16:19:54.621Z,100
2022-12-23T16:24:52.817Z,100
2022-12-23T16:29:51.193Z,100
2022-12-23T16:34:49.687Z,100
2022-12-23T16:39:47.817Z,100
2022-12-23T16:44:45.814Z,100
2022-12-23T16:49:43.853Z,100
2022-12-23T16:54:41.775Z,100
2022-12-23T16:59:40.001Z,100
2022-12-23T17:04:36.207Z,100
2022-12-23T17:09:34.292Z,100
2022-12-23T17:14:32.606Z,100
2022-12-23T17:19:30.942Z,100
2022-12-23T17:24:29.183Z,100
2022-12-23T17:29:27.313Z,100
2022-12-23T17:34:25.484Z,100
2022-12-23T17:39:23.833Z,100
2022-12-23T17:44:22.188Z,100
2022-12-23T17:49:20.415Z,100
2022-12-23T17:54:18.733Z,100
2022-12-23T17:59:17.060Z,100
2022-12-23T18:04:15.353Z,100
2022-12-23T18:09:13.785Z,100
2022-12-23T18:14:12.176Z,100
2022-12-23T18:19:10.551Z,100
2022-12-23T18:24:08.934Z,100
2022-12-23T18:29:07.143Z,100
2022-12-23T18:34:05.338Z,100
2022-12-23T18:39:03.774Z,100
2022-12-23T18:44:02.229Z,100
2022-12-23T18:49:00.622Z,100
2022-12-23T18:53:59.209Z,100
2022-12-23T18:58:57.380Z,100
2022-12-23T19:03:56.034Z,100
2022-12-23T19:08:54.226Z,100
2022-12-23T19:13:52.481Z,100
2022-12-23T19:18:51.216Z,100
2022-12-23T19:23:49.401Z,100
2022-12-23T19:28:47.667Z,100
2022-12-23T19:33:46.048Z,100
2022-12-23T19:38:44.486Z,100
2022-12-23T19:43:42.831Z,100
2022-12-23T19:48:41.048Z,100
2022-12-23T19:53:39.346Z,100
2022-12-23T19:58:37.500Z,100
2022-12-23T20:03:35.688Z,100
2022-12-23T20:08:34.123Z,100
2022-12-23T20:13:32.526Z,100
2022-12-23T20:18:30.752Z,100
2022-12-23T20:23:28.770Z,100
2022-12-23T20:28:27.085Z,100
2022-12-23T20:33:25.767Z,100
2022-12-23T20:38:24.002Z,100
2022-12-23T20:43:22.594Z,100
2022-12-23T20:48:20.987Z,100
2022-12-23T20:53:19.233Z,100
2022-12-23T20:58:17.937Z,100
2022-12-23T21:03:16.605Z,100
2022-12-23T21:08:14.816Z,100
2022-12-23T21:13:13.222Z,100
2022-12-23T21:18:11.841Z,100
2022-12-23T21:23:07.876Z,100
2022-12-23T21:28:06.389Z,100
2022-12-23T21:33:04.862Z,100
2022-12-23T21:38:03.514Z,100
2022-12-23T21:43:07.013Z,100
2022-12-23T21:48:01.552Z,100
2022-12-23T21:57:58.565Z,100
2022-12-23T22:02:56.817Z,100
2022-12-23T22:07:55.677Z,100
2022-12-23T22:12:54.037Z,100
2022-12-23T22:17:52.538Z,100
2022-12-23T22:22:51.344Z,100
2022-12-23T22:27:49.690Z,100
2022-12-23T22:32:48.101Z,100
2022-12-23T22:37:46.623Z,100
2022-12-23T22:42:44.674Z,100
2022-12-23T22:47:42.939Z,100
2022-12-23T22:52:40.769Z,100
2022-12-23T22:57:39.144Z,100
2022-12-23T23:02:37.550Z,100
2022-12-23T23:07:35.894Z,100
2022-12-23T23:12:34.401Z,100
2022-12-23T23:17:33.307Z,100
2022-12-23T23:22:31.645Z,100
2022-12-23T23:27:29.921Z,100
2022-12-23T23:32:28.363Z,100
2022-12-23T23:37:26.681Z,100
2022-12-23T23:42:25.618Z,100
2022-12-23T23:47:24.007Z,100
2022-12-23T23:52:22.203Z,100
2022-12-23T23:57:20.531Z,100
